sensor_id;sensor_type;location;lat;lon;timestamp;pressure;altitude;pressure_sealevel;temperature;humidity
9035;BME280;4552;43.422;24.592;2024-02-21T00:02:50;100692.94;;;7.37;100.00
9035;BME280;4552;43.422;24.592;2024-02-21T00:05:18;100692.88;;;7.33;100.00
9035;BME280;4552;43.422;24.592;2024-02-21T00:07:45;100686.75;;;7.29;100.00
9035;BME280;4552;43.422;24.592;2024-02-21T00:23:40;100678.06;;;7.26;100.00
9035;BME280;4552;43.422;24.592;2024-02-21T00:39:27;100677.00;;;7.08;100.00
9035;BME280;4552;43.422;24.592;2024-02-21T00:41:54;100671.72;;;7.02;100.00
9035;BME280;4552;43.422;24.592;2024-02-21T00:44:22;100672.59;;;7.04;100.00
9035;BME280;4552;43.422;24.592;2024-02-21T00:46:49;100671.63;;;6.95;100.00
9035;BME280;4552;43.422;24.592;2024-02-21T00:49:16;100662.97;;;6.99;100.00
9035;BME280;4552;43.422;24.592;2024-02-21T00:51:43;100661.03;;;6.81;100.00
9035;BME280;4552;43.422;24.592;2024-02-21T00:54:10;100658.50;;;6.87;100.00
9035;BME280;4552;43.422;24.592;2024-02-21T00:56:38;100655.09;;;6.91;100.00
9035;BME280;4552;43.422;24.592;2024-02-21T00:59:05;100648.16;;;6.90;100.00
9035;BME280;4552;43.422;24.592;2024-02-21T01:01:32;100657.66;;;6.90;100.00
9035;BME280;4552;43.422;24.592;2024-02-21T01:03:59;100637.41;;;6.66;100.00
9035;BME280;4552;43.422;24.592;2024-02-21T01:06:26;100649.66;;;6.73;100.00
9035;BME280;4552;43.422;24.592;2024-02-21T01:08:53;100633.03;;;6.64;100.00
9035;BME280;4552;43.422;24.592;2024-02-21T01:21:54;100641.66;;;6.58;100.00
9035;BME280;4552;43.422;24.592;2024-02-21T01:24:21;100637.41;;;6.66;100.00
9035;BME280;4552;43.422;24.592;2024-02-21T01:26:49;100629.38;;;6.50;100.00
9035;BME280;4552;43.422;24.592;2024-02-21T01:29:17;100635.34;;;6.41;100.00
9035;BME280;4552;43.422;24.592;2024-02-21T01:31:44;100621.53;;;6.45;100.00
9035;BME280;4552;43.422;24.592;2024-02-21T01:34:11;100601.47;;;6.35;100.00
9035;BME280;4552;43.422;24.592;2024-02-21T01:36:38;100618.91;;;6.44;100.00
9035;BME280;4552;43.422;24.592;2024-02-21T01:39:08;100621.53;;;6.47;100.00
9035;BME280;4552;43.422;24.592;2024-02-21T01:41:35;100605.84;;;6.39;100.00
9035;BME280;4552;43.422;24.592;2024-02-21T01:44:03;100585.78;;;6.28;100.00
9035;BME280;4552;43.422;24.592;2024-02-21T01:46:29;100602.34;;;6.37;100.00
9035;BME280;4552;43.422;24.592;2024-02-21T01:48:57;100618.81;;;6.38;100.00
9035;BME280;4552;43.422;24.592;2024-02-21T01:51:27;100608.38;;;6.35;100.00
9035;BME280;4552;43.422;24.592;2024-02-21T01:53:55;100599.56;;;6.25;100.00
9035;BME280;4552;43.422;24.592;2024-02-21T01:59:55;100595.44;;;6.39;100.00
9035;BME280;4552;43.422;24.592;2024-02-21T02:02:22;100610.06;;;6.33;100.00
9035;BME280;4552;43.422;24.592;2024-02-21T02:04:50;100609.94;;;6.24;100.00
9035;BME280;4552;43.422;24.592;2024-02-21T02:07:18;100610.69;;;6.15;100.00
9035;BME280;4552;43.422;24.592;2024-02-21T02:09:45;100593.34;;;6.11;100.00
9035;BME280;4552;43.422;24.592;2024-02-21T02:12:12;100612.63;;;6.28;100.00
9035;BME280;4552;43.422;24.592;2024-02-21T02:14:40;100612.63;;;6.28;100.00
9035;BME280;4552;43.422;24.592;2024-02-21T02:17:10;100595.19;;;6.21;100.00
9035;BME280;4552;43.422;24.592;2024-02-21T02:19:42;100621.22;;;6.24;100.00
9035;BME280;4552;43.422;24.592;2024-02-21T02:22:15;100610.03;;;6.30;100.00
9035;BME280;4552;43.422;24.592;2024-02-21T02:24:49;100614.63;;;6.47;100.00
9035;BME280;4552;43.422;24.592;2024-02-21T02:33:51;100614.75;;;6.56;100.00
9035;BME280;4552;43.422;24.592;2024-02-21T02:36:18;100623.53;;;6.64;100.00
9035;BME280;4552;43.422;24.592;2024-02-21T02:38:45;100623.44;;;6.58;100.00
9035;BME280;4552;43.422;24.592;2024-02-21T03:01:24;100617.31;;;6.53;100.00
9035;BME280;4552;43.422;24.592;2024-02-21T03:03:51;100593.81;;;6.47;100.00
9035;BME280;4552;43.422;24.592;2024-02-21T03:06:18;100598.22;;;6.53;100.00
9035;BME280;4552;43.422;24.592;2024-02-21T03:08:45;100598.22;;;6.53;100.00
9035;BME280;4552;43.422;24.592;2024-02-21T03:11:21;100615.72;;;6.63;100.00
9035;BME280;4552;43.422;24.592;2024-02-21T03:13:55;100584.19;;;6.40;100.00
9035;BME280;4552;43.422;24.592;2024-02-21T03:16:24;100599.06;;;6.50;100.00
9035;BME280;4552;43.422;24.592;2024-02-21T03:18:51;100599.09;;;6.53;100.00
9035;BME280;4552;43.422;24.592;2024-02-21T03:21:18;100614.00;;;6.68;100.00
9035;BME280;4552;43.422;24.592;2024-02-21T03:23:45;100610.69;;;6.76;100.00
9035;BME280;4552;43.422;24.592;2024-02-21T04:32:51;100606.97;;;8.34;95.18
9035;BME280;4552;43.422;24.592;2024-02-21T04:35:19;100633.16;;;8.54;94.92
9035;BME280;4552;43.422;24.592;2024-02-21T04:37:46;100621.78;;;8.43;94.95
9035;BME280;4552;43.422;24.592;2024-02-21T04:40:13;100630.53;;;8.48;95.11
9035;BME280;4552;43.422;24.592;2024-02-21T04:42:42;100628.78;;;8.50;94.47
9035;BME280;4552;43.422;24.592;2024-02-21T04:45:10;100629.69;;;8.58;94.58
9035;BME280;4552;43.422;24.592;2024-02-21T04:58:03;100631.44;;;8.60;93.35
9035;BME280;4552;43.422;24.592;2024-02-21T05:00:31;100613.91;;;8.31;93.35
9035;BME280;4552;43.422;24.592;2024-02-21T05:03:00;100630.56;;;8.52;94.06
9035;BME280;4552;43.422;24.592;2024-02-21T05:05:28;100608.81;;;8.56;93.64
9035;BME280;4552;43.422;24.592;2024-02-21T05:07:56;100612.34;;;8.66;92.82
9035;BME280;4552;43.422;24.592;2024-02-21T05:10:28;100644.50;;;8.62;92.12
9035;BME280;4552;43.422;24.592;2024-02-21T05:16:11;100642.81;;;8.70;92.38
9035;BME280;4552;43.422;24.592;2024-02-21T05:18:40;100624.50;;;8.64;92.45
9035;BME280;4552;43.422;24.592;2024-02-21T05:21:08;100639.25;;;8.59;92.95
9035;BME280;4552;43.422;24.592;2024-02-21T05:23:35;100622.75;;;8.55;93.19
9035;BME280;4552;43.422;24.592;2024-02-21T05:26:04;100637.47;;;8.46;92.79
9035;BME280;4552;43.422;24.592;2024-02-21T05:28:32;100634.00;;;8.50;93.45
9035;BME280;4552;43.422;24.592;2024-02-21T05:30:59;100645.41;;;8.68;93.64
9035;BME280;4552;43.422;24.592;2024-02-21T05:33:27;100616.72;;;8.70;92.31
9035;BME280;4552;43.422;24.592;2024-02-21T05:35:53;100637.63;;;8.79;92.31
9035;BME280;4552;43.422;24.592;2024-02-21T05:38:20;100638.44;;;8.64;92.37
9035;BME280;4552;43.422;24.592;2024-02-21T05:40:47;100645.44;;;8.74;92.38
9035;BME280;4552;43.422;24.592;2024-02-21T05:43:14;100639.28;;;8.65;92.44
9035;BME280;4552;43.422;24.592;2024-02-21T05:45:41;100643.81;;;9.01;92.39
9035;BME280;4552;43.422;24.592;2024-02-21T05:51:50;100642.03;;;8.83;91.20
9035;BME280;4552;43.422;24.592;2024-02-21T05:54:17;100650.69;;;8.80;91.95
9035;BME280;4552;43.422;24.592;2024-02-21T05:56:45;100663.72;;;8.79;91.99
9035;BME280;4552;43.422;24.592;2024-02-21T05:59:15;100651.53;;;8.72;91.48
9035;BME280;4552;43.422;24.592;2024-02-21T06:01:42;100658.53;;;8.82;91.68
9035;BME280;4552;43.422;24.592;2024-02-21T06:04:09;100645.47;;;8.82;91.52
9035;BME280;4552;43.422;24.592;2024-02-21T06:06:36;100662.91;;;8.86;90.90
9035;BME280;4552;43.422;24.592;2024-02-21T06:09:05;100669.03;;;8.97;90.98
9035;BME280;4552;43.422;24.592;2024-02-21T06:11:32;100661.13;;;8.82;91.12
9035;BME280;4552;43.422;24.592;2024-02-21T06:14:00;100666.38;;;8.90;91.35
9035;BME280;4552;43.422;24.592;2024-02-21T06:16:28;100677.75;;;9.02;91.12
9035;BME280;4552;43.422;24.592;2024-02-21T07:49:54;100699.81;;;10.06;86.77
9035;BME280;4552;43.422;24.592;2024-02-21T07:52:21;100685.84;;;10.00;86.11
9035;BME280;4552;43.422;24.592;2024-02-21T07:54:48;100683.25;;;9.98;86.04
9035;BME280;4552;43.422;24.592;2024-02-21T07:57:15;100702.44;;;10.06;86.08
9035;BME280;4552;43.422;24.592;2024-02-21T07:59:42;100691.13;;;10.15;86.08
9035;BME280;4552;43.422;24.592;2024-02-21T08:15:35;100709.34;;;10.95;82.07
9035;BME280;4552;43.422;24.592;2024-02-21T08:18:05;100711.03;;;11.11;80.51
9035;BME280;4552;43.422;24.592;2024-02-21T08:20:32;100700.63;;;10.93;78.92
9035;BME280;4552;43.422;24.592;2024-02-21T08:22:59;100700.63;;;10.84;79.14
9035;BME280;4552;43.422;24.592;2024-02-21T08:25:26;100711.88;;;11.14;78.42
9035;BME280;4552;43.422;24.592;2024-02-21T08:27:56;100707.50;;;11.24;76.89
9035;BME280;4552;43.422;24.592;2024-02-21T08:30:24;100698.78;;;11.16;76.70
9035;BME280;4552;43.422;24.592;2024-02-21T08:32:52;100716.22;;;11.26;76.70
9035;BME280;4552;43.422;24.592;2024-02-21T08:35:19;100706.63;;;11.16;77.46
9035;BME280;4552;43.422;24.592;2024-02-21T08:37:47;100704.97;;;10.97;77.55
9035;BME280;4552;43.422;24.592;2024-02-21T08:40:15;100704.94;;;11.04;77.25
9035;BME280;4552;43.422;24.592;2024-02-21T08:42:45;100700.63;;;10.99;78.51
9035;BME280;4552;43.422;24.592;2024-02-21T08:45:12;100700.56;;;11.12;78.06
9035;BME280;4552;43.422;24.592;2024-02-21T08:47:39;100699.63;;;11.25;76.91
9035;BME280;4552;43.422;24.592;2024-02-21T08:50:09;100695.19;;;11.41;77.67
9035;BME280;4552;43.422;24.592;2024-02-21T08:52:36;100700.25;;;11.74;76.64
9035;BME280;4552;43.422;24.592;2024-02-21T08:55:04;100699.34;;;11.85;74.69
9035;BME280;4552;43.422;24.592;2024-02-21T08:57:31;100700.13;;;11.98;74.32
9035;BME280;4552;43.422;24.592;2024-02-21T09:00:03;100701.84;;;11.99;72.54
9035;BME280;4552;43.422;24.592;2024-02-21T09:02:35;100691.38;;;11.99;72.66
9035;BME280;4552;43.422;24.592;2024-02-21T09:05:04;100692.94;;;12.18;72.62
9035;BME280;4552;43.422;24.592;2024-02-21T09:07:33;100696.53;;;12.08;73.34
9035;BME280;4552;43.422;24.592;2024-02-21T09:10:00;100699.19;;;12.03;72.36
9035;BME280;4552;43.422;24.592;2024-02-21T09:12:28;100702.66;;;12.08;71.15
9035;BME280;4552;43.422;24.592;2024-02-21T09:31:46;100700.34;;;12.71;66.88
9035;BME280;4552;43.422;24.592;2024-02-21T09:34:14;100692.41;;;12.78;66.86
9035;BME280;4552;43.422;24.592;2024-02-21T09:36:41;100689.72;;;12.83;66.86
9035;BME280;4552;43.422;24.592;2024-02-21T09:39:09;100698.59;;;12.73;69.38
9035;BME280;4552;43.422;24.592;2024-02-21T09:41:43;100683.72;;;12.70;69.44
9035;BME280;4552;43.422;24.592;2024-02-21T09:44:13;100700.78;;;13.13;65.83
9035;BME280;4552;43.422;24.592;2024-02-21T09:46:52;100673.38;;;12.55;67.69
9035;BME280;4552;43.422;24.592;2024-02-21T10:03:18;100679.53;;;13.31;65.82
9035;BME280;4552;43.422;24.592;2024-02-21T10:05:48;100683.22;;;13.18;64.07
9035;BME280;4552;43.422;24.592;2024-02-21T10:08:17;100668.38;;;13.11;64.82
9035;BME280;4552;43.422;24.592;2024-02-21T10:10:45;100669.47;;;12.92;64.54
9035;BME280;4552;43.422;24.592;2024-02-21T10:13:24;100659.81;;;12.96;64.41
9035;BME280;4552;43.422;24.592;2024-02-21T10:16:03;100657.16;;;12.97;63.40
9035;BME280;4552;43.422;24.592;2024-02-21T10:28:37;100639.81;;;12.81;65.41
9035;BME280;4552;43.422;24.592;2024-02-21T10:31:08;100642.72;;;12.57;67.08
9035;BME280;4552;43.422;24.592;2024-02-21T10:40:19;100638.75;;;13.02;64.50
9035;BME280;4552;43.422;24.592;2024-02-21T10:42:48;100637.66;;;13.16;63.73
9035;BME280;4552;43.422;24.592;2024-02-21T10:45:19;100625.38;;;13.18;63.92
9035;BME280;4552;43.422;24.592;2024-02-21T10:47:49;100626.25;;;13.20;63.71
9035;BME280;4552;43.422;24.592;2024-02-21T10:50:19;100606.13;;;13.16;62.79
9035;BME280;4552;43.422;24.592;2024-02-21T10:52:51;100612.88;;;13.35;62.15
9035;BME280;4552;43.422;24.592;2024-02-21T10:55:29;100621.25;;;13.61;59.85
9035;BME280;4552;43.422;24.592;2024-02-21T10:58:01;100616.59;;;13.80;59.63
9035;BME280;4552;43.422;24.592;2024-02-21T11:00:30;100619.31;;;13.72;59.77
9035;BME280;4552;43.422;24.592;2024-02-21T11:02:58;100609.69;;;13.71;59.57
9035;BME280;4552;43.422;24.592;2024-02-21T11:05:26;100603.66;;;13.63;55.94
9035;BME280;4552;43.422;24.592;2024-02-21T11:07:55;100607.31;;;13.56;55.17
9035;BME280;4552;43.422;24.592;2024-02-21T11:10:23;100605.72;;;13.43;55.01
9035;BME280;4552;43.422;24.592;2024-02-21T11:12:52;100584.69;;;13.43;55.67
9035;BME280;4552;43.422;24.592;2024-02-21T11:15:25;100586.47;;;13.43;54.54
9035;BME280;4552;43.422;24.592;2024-02-21T11:34:53;100600.03;;;14.25;52.65
9035;BME280;4552;43.422;24.592;2024-02-21T11:37:20;100567.09;;;14.00;52.60
9035;BME280;4552;43.422;24.592;2024-02-21T11:39:47;100568.94;;;13.97;52.93
9035;BME280;4552;43.422;24.592;2024-02-21T11:42:18;100541.44;;;14.13;53.66
9035;BME280;4552;43.422;24.592;2024-02-21T11:44:51;100551.47;;;13.91;53.10
9035;BME280;4552;43.422;24.592;2024-02-21T11:51:04;100536.34;;;13.52;54.47
9035;BME280;4552;43.422;24.592;2024-02-21T11:53:34;100549.19;;;13.71;53.37
9035;BME280;4552;43.422;24.592;2024-02-21T11:56:04;100546.56;;;13.70;52.80
9035;BME280;4552;43.422;24.592;2024-02-21T11:58:33;100538.47;;;13.29;54.06
9035;BME280;4552;43.422;24.592;2024-02-21T12:01:08;100525.41;;;13.23;53.68
9035;BME280;4552;43.422;24.592;2024-02-21T12:10:36;100504.41;;;13.74;53.51
9035;BME280;4552;43.422;24.592;2024-02-21T12:13:07;100499.72;;;13.91;52.39
9035;BME280;4552;43.422;24.592;2024-02-21T12:15:35;100523.09;;;14.08;51.83
9035;BME280;4552;43.422;24.592;2024-02-21T12:20:53;100514.94;;;14.22;50.24
9035;BME280;4552;43.422;24.592;2024-02-21T12:23:35;100493.13;;;14.15;49.11
9035;BME280;4552;43.422;24.592;2024-02-21T12:26:17;100493.38;;;14.02;50.41
9035;BME280;4552;43.422;24.592;2024-02-21T12:28:44;100492.50;;;14.03;50.88
9035;BME280;4552;43.422;24.592;2024-02-21T12:31:12;100494.84;;;14.16;50.41
9035;BME280;4552;43.422;24.592;2024-02-21T12:47:08;100491.50;;;13.59;52.78
9035;BME280;4552;43.422;24.592;2024-02-21T12:49:35;100492.59;;;13.48;53.04
9035;BME280;4552;43.422;24.592;2024-02-21T12:52:02;100488.53;;;13.29;53.29
9035;BME280;4552;43.422;24.592;2024-02-21T12:54:30;100497.22;;;13.32;53.45
9035;BME280;4552;43.422;24.592;2024-02-21T12:56:59;100479.59;;;13.37;53.80
9035;BME280;4552;43.422;24.592;2024-02-21T12:59:28;100484.53;;;13.58;53.25
9035;BME280;4552;43.422;24.592;2024-02-21T13:01:55;100483.41;;;13.71;52.93
9035;BME280;4552;43.422;24.592;2024-02-21T13:24:35;100482.84;;;14.02;52.84
9035;BME280;4552;43.422;24.592;2024-02-21T13:27:02;100485.22;;;14.17;52.40
9035;BME280;4552;43.422;24.592;2024-02-21T13:29:29;100478.38;;;14.07;52.49
9035;BME280;4552;43.422;24.592;2024-02-21T13:31:56;100465.94;;;14.15;51.87
9035;BME280;4552;43.422;24.592;2024-02-21T13:34:23;100471.19;;;14.15;52.24
9035;BME280;4552;43.422;24.592;2024-02-21T13:36:50;100475.75;;;14.51;51.26
9035;BME280;4552;43.422;24.592;2024-02-21T13:39:17;100469.97;;;14.32;50.74
9035;BME280;4552;43.422;24.592;2024-02-21T13:41:48;100461.47;;;14.18;51.10
9035;BME280;4552;43.422;24.592;2024-02-21T13:44:16;100472.56;;;13.88;51.22
9035;BME280;4552;43.422;24.592;2024-02-21T13:46:44;100473.78;;;13.70;52.10
9035;BME280;4552;43.422;24.592;2024-02-21T13:52:33;100470.19;;;13.74;52.49
9035;BME280;4552;43.422;24.592;2024-02-21T13:54:59;100457.06;;;13.73;52.74
9035;BME280;4552;43.422;24.592;2024-02-21T13:57:28;100464.00;;;13.77;52.00
9035;BME280;4552;43.422;24.592;2024-02-21T13:59:55;100458.91;;;13.68;52.73
9035;BME280;4552;43.422;24.592;2024-02-21T14:02:22;100471.88;;;13.78;52.71
9035;BME280;4552;43.422;24.592;2024-02-21T14:04:49;100468.31;;;13.82;52.16
9035;BME280;4552;43.422;24.592;2024-02-21T14:07:16;100475.72;;;13.61;52.58
9035;BME280;4552;43.422;24.592;2024-02-21T14:09:57;100467.75;;;13.64;52.92
9035;BME280;4552;43.422;24.592;2024-02-21T14:12:24;100488.75;;;13.67;52.70
9035;BME280;4552;43.422;24.592;2024-02-21T14:14:53;100479.19;;;13.63;53.18
9035;BME280;4552;43.422;24.592;2024-02-21T14:17:20;100481.84;;;13.61;53.49
9035;BME280;4552;43.422;24.592;2024-02-21T14:19:47;100477.53;;;13.56;53.55
9035;BME280;4552;43.422;24.592;2024-02-21T14:22:14;100452.81;;;13.16;58.76
9035;BME280;4552;43.422;24.592;2024-02-21T14:24:41;100469.72;;;12.95;63.23
9035;BME280;4552;43.422;24.592;2024-02-21T14:27:12;100445.63;;;12.68;65.45
9035;BME280;4552;43.422;24.592;2024-02-21T14:29:45;100456.06;;;12.72;66.40
9035;BME280;4552;43.422;24.592;2024-02-21T14:32:28;100456.47;;;12.42;68.27
9035;BME280;4552;43.422;24.592;2024-02-21T14:41:37;100455.97;;;12.11;72.30
9035;BME280;4552;43.422;24.592;2024-02-21T14:44:05;100449.88;;;12.08;72.99
9035;BME280;4552;43.422;24.592;2024-02-21T14:46:37;100443.84;;;12.01;73.43
9035;BME280;4552;43.422;24.592;2024-02-21T14:55:50;100455.31;;;11.93;74.58
9035;BME280;4552;43.422;24.592;2024-02-21T14:58:17;100446.69;;;11.82;74.86
9035;BME280;4552;43.422;24.592;2024-02-21T15:06:41;100447.88;;;11.46;76.66
9035;BME280;4552;43.422;24.592;2024-02-21T15:15:05;100455.81;;;11.37;77.21
9035;BME280;4552;43.422;24.592;2024-02-21T15:17:34;100459.31;;;11.39;77.30
9035;BME280;4552;43.422;24.592;2024-02-21T15:23:32;100452.53;;;11.13;79.12
9035;BME280;4552;43.422;24.592;2024-02-21T15:26:11;100453.38;;;11.15;81.03
9035;BME280;4552;43.422;24.592;2024-02-21T15:28:40;100466.47;;;11.18;83.55
9035;BME280;4552;43.422;24.592;2024-02-21T15:34:22;100453.50;;;11.00;85.79
9035;BME280;4552;43.422;24.592;2024-02-21T15:37:03;100457.91;;;10.92;85.80
9035;BME280;4552;43.422;24.592;2024-02-21T15:39:31;100455.28;;;10.96;85.36
9035;BME280;4552;43.422;24.592;2024-02-21T15:41:58;100484.81;;;11.15;85.51
9035;BME280;4552;43.422;24.592;2024-02-21T15:44:39;100480.50;;;11.11;85.26
9035;BME280;4552;43.422;24.592;2024-02-21T15:47:09;100473.59;;;10.98;85.66
9035;BME280;4552;43.422;24.592;2024-02-21T15:53:00;100487.50;;;11.06;84.25
9035;BME280;4552;43.422;24.592;2024-02-21T15:55:28;100499.69;;;11.10;82.89
9035;BME280;4552;43.422;24.592;2024-02-21T15:57:56;100488.44;;;11.02;82.54
9035;BME280;4552;43.422;24.592;2024-02-21T16:00:24;100493.72;;;10.96;82.91
9035;BME280;4552;43.422;24.592;2024-02-21T16:25:51;100567.25;;;10.44;83.13
9035;BME280;4552;43.422;24.592;2024-02-21T16:28:20;100542.00;;;10.22;82.57
9035;BME280;4552;43.422;24.592;2024-02-21T16:39:31;100541.94;;;10.46;81.84
9035;BME280;4552;43.422;24.592;2024-02-21T16:47:08;100543.78;;;10.02;83.91
9035;BME280;4552;43.422;24.592;2024-02-21T16:53:00;100551.63;;;10.02;83.97
9035;BME280;4552;43.422;24.592;2024-02-21T16:55:36;100575.19;;;10.14;82.46
9035;BME280;4552;43.422;24.592;2024-02-21T16:58:19;100557.72;;;9.92;82.75
9035;BME280;4552;43.422;24.592;2024-02-21T17:00:50;100583.00;;;10.22;83.05
9035;BME280;4552;43.422;24.592;2024-02-21T17:09:43;100569.94;;;9.60;88.32
9035;BME280;4552;43.422;24.592;2024-02-21T17:12:14;100580.38;;;9.66;89.82
9035;BME280;4552;43.422;24.592;2024-02-21T17:14:41;100584.75;;;9.75;89.92
9035;BME280;4552;43.422;24.592;2024-02-21T17:17:12;100590.00;;;9.66;90.91
9035;BME280;4552;43.422;24.592;2024-02-21T17:19:42;100602.19;;;9.76;90.22
9035;BME280;4552;43.422;24.592;2024-02-21T17:22:16;100592.59;;;9.70;89.98
9035;BME280;4552;43.422;24.592;2024-02-21T17:48:02;100608.19;;;9.19;100.00
9035;BME280;4552;43.422;24.592;2024-02-21T17:59:39;100587.22;;;8.86;100.00
9035;BME280;4552;43.422;24.592;2024-02-21T18:02:07;100610.75;;;8.98;100.00
9035;BME280;4552;43.422;24.592;2024-02-21T18:07:57;100621.16;;;8.88;100.00
9035;BME280;4552;43.422;24.592;2024-02-21T18:10:24;100597.63;;;8.78;100.00
9035;BME280;4552;43.422;24.592;2024-02-21T18:12:52;100600.25;;;8.85;100.00
9035;BME280;4552;43.422;24.592;2024-02-21T18:15:19;100615.91;;;8.83;100.00
9035;BME280;4552;43.422;24.592;2024-02-21T18:17:49;100598.44;;;8.65;100.00
9035;BME280;4552;43.422;24.592;2024-02-21T18:30:24;100600.06;;;8.44;100.00
9035;BME280;4552;43.422;24.592;2024-02-21T18:32:51;100600.91;;;8.37;100.00
9035;BME280;4552;43.422;24.592;2024-02-21T18:35:18;100599.16;;;8.36;100.00
9035;BME280;4552;43.422;24.592;2024-02-21T18:37:45;100602.59;;;8.32;100.00
9035;BME280;4552;43.422;24.592;2024-02-21T18:40:16;100590.41;;;8.26;100.00
9035;BME280;4552;43.422;24.592;2024-02-21T18:42:44;100596.56;;;8.36;100.00
9035;BME280;4552;43.422;24.592;2024-02-21T18:45:12;100598.22;;;8.28;100.00
9035;BME280;4552;43.422;24.592;2024-02-21T18:47:43;100585.13;;;8.22;100.00
9035;BME280;4552;43.422;24.592;2024-02-21T18:53:32;100605.00;;;8.05;100.00
9035;BME280;4552;43.422;24.592;2024-02-21T18:55:59;100605.81;;;7.99;100.00
9035;BME280;4552;43.422;24.592;2024-02-21T18:58:30;100611.00;;;7.98;100.00
9035;BME280;4552;43.422;24.592;2024-02-21T19:00:58;100612.78;;;7.99;100.00
9035;BME280;4552;43.422;24.592;2024-02-21T19:03:26;100608.38;;;7.95;100.00
9035;BME280;4552;43.422;24.592;2024-02-21T19:05:53;100622.31;;;7.97;100.00
9035;BME280;4552;43.422;24.592;2024-02-21T19:08:21;100601.38;;;7.85;100.00
9035;BME280;4552;43.422;24.592;2024-02-21T19:10:48;100604.00;;;7.88;100.00
9035;BME280;4552;43.422;24.592;2024-02-21T19:13:16;100604.88;;;7.90;100.00
9035;BME280;4552;43.422;24.592;2024-02-21T19:15:46;100591.78;;;7.81;100.00
9035;BME280;4552;43.422;24.592;2024-02-21T19:18:14;100610.16;;;7.99;100.00
9035;BME280;4552;43.422;24.592;2024-02-21T19:26:08;100591.75;;;7.75;100.00
9035;BME280;4552;43.422;24.592;2024-02-21T19:28:38;100601.28;;;7.76;100.00
9035;BME280;4552;43.422;24.592;2024-02-21T19:31:08;100604.78;;;7.76;100.00
9035;BME280;4552;43.422;24.592;2024-02-21T19:53:48;100613.28;;;7.57;100.00
9035;BME280;4552;43.422;24.592;2024-02-21T19:56:16;100603.63;;;7.46;100.00
9035;BME280;4552;43.422;24.592;2024-02-21T19:58:43;100608.81;;;7.43;100.00
9035;BME280;4552;43.422;24.592;2024-02-21T20:01:10;100619.25;;;7.44;100.00
9035;BME280;4552;43.422;24.592;2024-02-21T20:10:33;100620.03;;;7.37;100.00
9035;BME280;4552;43.422;24.592;2024-02-21T20:13:02;100599.91;;;7.20;100.00
9035;BME280;4552;43.422;24.592;2024-02-21T20:15:30;100607.75;;;7.24;100.00
9035;BME280;4552;43.422;24.592;2024-02-21T20:17:58;100618.19;;;7.27;100.00
9035;BME280;4552;43.422;24.592;2024-02-21T20:34:31;100623.91;;;6.94;100.00
9035;BME280;4552;43.422;24.592;2024-02-21T20:36:59;100610.84;;;6.91;100.00
9035;BME280;4552;43.422;24.592;2024-02-21T20:39:28;100595.13;;;6.81;100.00
9035;BME280;4552;43.422;24.592;2024-02-21T20:42:03;100610.78;;;6.85;100.00
9035;BME280;4552;43.422;24.592;2024-02-21T20:44:31;100607.34;;;6.89;100.00
9035;BME280;4552;43.422;24.592;2024-02-21T20:46:58;100582.94;;;6.77;100.00
9035;BME280;4552;43.422;24.592;2024-02-21T20:52:50;100590.81;;;6.81;100.00
9035;BME280;4552;43.422;24.592;2024-02-21T20:55:17;100583.88;;;6.83;100.00
9035;BME280;4552;43.422;24.592;2024-02-21T20:57:50;100577.72;;;6.75;100.00
9035;BME280;4552;43.422;24.592;2024-02-21T21:00:21;100582.16;;;6.85;100.00
9035;BME280;4552;43.422;24.592;2024-02-21T21:02:48;100578.66;;;6.83;100.00
9035;BME280;4552;43.422;24.592;2024-02-21T21:05:19;100566.50;;;6.79;100.00
9035;BME280;4552;43.422;24.592;2024-02-21T21:07:52;100584.75;;;6.84;100.00
9035;BME280;4552;43.422;24.592;2024-02-21T21:13:00;100580.44;;;6.84;100.00
9035;BME280;4552;43.422;24.592;2024-02-21T21:15:28;100589.13;;;6.88;100.00
9035;BME280;4552;43.422;24.592;2024-02-21T21:17:55;100562.94;;;6.74;100.00
9035;BME280;4552;43.422;24.592;2024-02-21T21:44:36;100573.34;;;6.74;100.00
9035;BME280;4552;43.422;24.592;2024-02-21T21:47:04;100579.47;;;6.76;100.00
9035;BME280;4552;43.422;24.592;2024-02-21T22:17:06;100576.44;;;6.43;100.00
9035;BME280;4552;43.422;24.592;2024-02-21T22:19:33;100565.16;;;6.43;100.00
9035;BME280;4552;43.422;24.592;2024-02-21T22:22:00;100545.06;;;6.31;100.00
9035;BME280;4552;43.422;24.592;2024-02-21T22:24:29;100566.94;;;6.47;100.00
9035;BME280;4552;43.422;24.592;2024-02-21T22:26:56;100568.72;;;6.48;100.00
9035;BME280;4552;43.422;24.592;2024-02-21T22:29:25;100552.94;;;6.36;100.00
9035;BME280;4552;43.422;24.592;2024-02-21T22:31:52;100557.34;;;6.41;100.00
9035;BME280;4552;43.422;24.592;2024-02-21T22:44:25;100560.75;;;6.37;100.00
9035;BME280;4552;43.422;24.592;2024-02-21T22:46:53;100559.09;;;6.42;100.00
9035;BME280;4552;43.422;24.592;2024-02-21T23:02:48;100549.53;;;6.40;100.00
9035;BME280;4552;43.422;24.592;2024-02-21T23:05:19;100531.28;;;6.35;100.00
9035;BME280;4552;43.422;24.592;2024-02-21T23:07:49;100526.19;;;6.44;100.00
9035;BME280;4552;43.422;24.592;2024-02-21T23:10:17;100548.81;;;6.51;100.00
9035;BME280;4552;43.422;24.592;2024-02-21T23:12:49;100546.19;;;6.50;100.00
9035;BME280;4552;43.422;24.592;2024-02-21T23:15:16;100546.16;;;6.47;100.00
9035;BME280;4552;43.422;24.592;2024-02-21T23:17:43;100548.72;;;6.45;100.00
9035;BME280;4552;43.422;24.592;2024-02-21T23:30:16;100543.38;;;6.33;100.00
9035;BME280;4552;43.422;24.592;2024-02-21T23:32:44;100532.09;;;6.34;100.00
9035;BME280;4552;43.422;24.592;2024-02-21T23:35:11;100513.84;;;6.30;100.00
9035;BME280;4552;43.422;24.592;2024-02-21T23:37:38;100526.09;;;6.35;100.00
9035;BME280;4552;43.422;24.592;2024-02-21T23:40:06;100532.16;;;6.37;100.00
9035;BME280;4552;43.422;24.592;2024-02-21T23:42:37;100517.28;;;6.24;100.00
9035;BME280;4552;43.422;24.592;2024-02-21T23:45:06;100528.63;;;6.31;100.00
9035;BME280;4552;43.422;24.592;2024-02-21T23:47:37;100538.19;;;6.35;100.00
9035;BME280;4552;43.422;24.592;2024-02-21T23:50:05;100533.91;;;6.38;100.00
9035;BME280;4552;43.422;24.592;2024-02-21T23:52:32;100518.09;;;6.20;100.00